Time;durP1;ratioP1;P1;durP2;ratioP2;P2;SDS_P1;SDS_P2;PMS_P1;PMS_P2;Temp;Humidity;BMP_temperature;BMP_pressure;BME280_temperature;BME280_humidity;BME280_pressure;Samples;Min_cycle;Max_cycle;Signal;HPM_P1;HPM_P2
2023/08/06 00:00:23;;;;;;;18.02;16.92;;;;;;;20.11;100.00;92052.09;5064549;28;20050;-74
2023/08/06 00:02:50;;;;;;;14.00;13.05;;;;;;;20.18;100.00;92053.53;5062828;28;20056;-74
2023/08/06 00:05:17;;;;;;;12.32;11.32;;;;;;;20.23;100.00;92056.00;5065098;28;20502;-75
2023/08/06 00:07:45;;;;;;;12.23;11.18;;;;;;;20.16;100.00;92019.94;5061943;28;20060;-75
2023/08/06 00:10:12;;;;;;;18.02;16.73;;;;;;;20.12;100.00;92008.53;5058237;28;20410;-76
2023/08/06 00:12:38;;;;;;;14.35;13.45;;;;;;;20.04;100.00;91991.78;5057315;28;20485;-76
2023/08/06 00:15:08;;;;;;;12.40;11.48;;;;;;;20.05;100.00;91990.75;5056976;28;20049;-76
2023/08/06 00:17:35;;;;;;;18.00;16.90;;;;;;;20.05;100.00;91995.19;5061506;28;20513;-76
2023/08/06 00:20:04;;;;;;;14.85;13.65;;;;;;;20.06;100.00;91999.31;5060797;28;20045;-76
2023/08/06 00:22:32;;;;;;;17.08;16.08;;;;;;;20.03;100.00;91991.03;5058906;28;20052;-77
2023/08/06 00:24:59;;;;;;;14.10;13.25;;;;;;;19.96;100.00;92005.53;5055874;28;20049;-77
2023/08/06 00:27:26;;;;;;;16.67;15.38;;;;;;;20.02;100.00;92023.38;5061151;28;20040;-75
2023/08/06 00:29:53;;;;;;;17.98;16.83;;;;;;;19.96;100.00;92011.56;5061597;28;20143;-74
2023/08/06 00:32:21;;;;;;;12.15;11.25;;;;;;;19.92;100.00;92005.34;5059536;28;20052;-73
2023/08/06 00:34:49;;;;;;;15.50;14.40;;;;;;;19.97;100.00;91997.44;5064094;28;20048;-74
2023/08/06 00:37:16;;;;;;;18.63;17.33;;;;;;;20.06;100.00;91997.50;5061322;28;20410;-75
2023/08/06 00:39:43;;;;;;;18.95;17.30;;;;;;;20.07;100.00;91991.22;5065266;28;20101;-75
2023/08/06 00:42:10;;;;;;;13.10;12.07;;;;;;;20.10;100.00;91990.63;5058651;28;20350;-75
2023/08/06 00:44:37;;;;;;;14.68;13.40;;;;;;;20.10;100.00;92008.09;5061529;28;20494;-75
2023/08/06 00:47:04;;;;;;;14.60;13.40;;;;;;;20.14;100.00;92007.19;5064423;28;20094;-75
2023/08/06 00:49:33;;;;;;;15.07;14.05;;;;;;;20.00;100.00;91985.66;5058267;28;20045;-74
2023/08/06 00:52:00;;;;;;;15.80;14.70;;;;;;;19.89;100.00;91990.31;5059905;28;20078;-74
2023/08/06 00:54:28;;;;;;;19.60;18.20;;;;;;;19.93;100.00;91991.25;5057275;28;20044;-75
2023/08/06 00:56:57;;;;;;;16.33;15.13;;;;;;;19.89;100.00;91969.44;5061504;28;20094;-73
2023/08/06 00:59:24;;;;;;;15.43;14.13;;;;;;;19.95;100.00;91970.88;5062475;28;20105;-74
2023/08/06 01:01:51;;;;;;;13.52;12.60;;;;;;;20.01;100.00;91971.56;5061751;28;20560;-74
2023/08/06 01:04:17;;;;;;;14.63;13.63;;;;;;;20.02;100.00;91963.44;5058629;28;20502;-75
2023/08/06 01:06:49;;;;;;;13.30;12.23;;;;;;;20.02;100.00;91954.84;5061381;28;20048;-74
2023/08/06 01:09:32;;;;;;;20.52;19.27;;;;;;;20.06;100.00;91970.66;5062008;28;20045;-74
2023/08/06 01:12:11;;;;;;;19.98;18.58;;;;;;;20.03;100.00;91964.19;5060851;28;20475;-75
2023/08/06 01:14:48;;;;;;;14.77;13.60;;;;;;;20.02;100.00;91960.06;5064779;28;20041;-73
2023/08/06 01:17:15;;;;;;;16.25;15.05;;;;;;;20.00;100.00;91965.56;5068425;28;20074;-75
2023/08/06 01:19:42;;;;;;;14.18;13.23;;;;;;;19.93;100.00;91946.94;5067547;28;20098;-75
2023/08/06 01:22:10;;;;;;;18.40;17.05;;;;;;;19.92;100.00;91942.03;5063317;28;20052;-75
2023/08/06 01:24:37;;;;;;;21.50;20.08;;;;;;;19.95;100.00;91955.22;5062853;28;20094;-74
2023/08/06 01:27:10;;;;;;;22.58;21.08;;;;;;;19.97;100.00;91963.56;5066549;28;20556;-74
2023/08/06 01:29:42;;;;;;;15.15;13.95;;;;;;;19.98;100.00;91965.09;5067004;28;20947;-74
2023/08/06 01:32:11;;;;;;;18.25;17.05;;;;;;;19.95;100.00;91954.47;5067304;28;20502;-74
2023/08/06 01:34:41;;;;;;;20.63;19.13;;;;;;;19.93;100.00;91954.78;5066866;28;20057;-73
2023/08/06 01:37:10;;;;;;;15.77;14.38;;;;;;;19.90;100.00;91953.53;5068255;28;20113;-74
2023/08/06 01:39:37;;;;;;;19.00;17.67;;;;;;;19.86;100.00;91962.25;5068898;28;20457;-74
2023/08/06 01:42:04;;;;;;;22.50;20.90;;;;;;;19.83;100.00;91976.63;5063793;28;20075;-75
2023/08/06 01:44:31;;;;;;;22.98;21.33;;;;;;;19.81;100.00;91976.16;5062081;28;20044;-75
2023/08/06 01:46:58;;;;;;;20.42;18.63;;;;;;;19.29;100.00;91919.28;5067382;28;20051;-74
2023/08/06 01:49:25;;;;;;;27.55;25.70;;;;;;;19.25;100.00;91929.50;5063065;28;20506;-74
2023/08/06 01:51:51;;;;;;;27.73;25.77;;;;;;;18.90;100.00;91927.38;5064852;28;20074;-74
2023/08/06 01:54:19;;;;;;;31.92;29.77;;;;;;;18.29;100.00;91930.16;5064660;28;20056;-75
2023/08/06 01:56:46;;;;;;;45.47;42.63;;;;;;;18.21;100.00;91930.81;5065671;28;20468;-76
2023/08/06 01:59:13;;;;;;;49.10;46.33;;;;;;;18.20;100.00;91930.06;5062556;28;20036;-75
2023/08/06 02:01:39;;;;;;;52.03;48.92;;;;;;;18.32;100.00;91923.59;5060779;28;20098;-75
2023/08/06 02:04:06;;;;;;;51.05;48.05;;;;;;;18.45;100.00;91927.22;5067529;28;20053;-75
2023/08/06 02:06:33;;;;;;;57.80;54.20;;;;;;;18.63;100.00;91934.16;5063845;28;20048;-75
2023/08/06 02:08:59;;;;;;;44.42;41.70;;;;;;;18.78;100.00;91942.72;5056745;28;20044;-75
2023/08/06 02:11:27;;;;;;;43.80;41.00;;;;;;;18.94;100.00;91969.19;5064758;28;20498;-75
2023/08/06 02:13:54;;;;;;;30.50;27.90;;;;;;;19.05;100.00;91975.75;5068302;28;20044;-75
2023/08/06 02:16:21;;;;;;;29.77;27.70;;;;;;;19.16;100.00;91978.16;5061741;28;20163;-76
2023/08/06 02:18:48;;;;;;;36.65;33.83;;;;;;;19.22;100.00;91967.31;5066376;28;20056;-76
2023/08/06 02:21:14;;;;;;;28.00;25.77;;;;;;;19.25;100.00;91973.75;5065536;28;20053;-76
2023/08/06 02:23:41;;;;;;;24.33;22.27;;;;;;;19.35;100.00;91972.78;5065158;28;20052;-75
2023/08/06 02:26:08;;;;;;;26.75;24.85;;;;;;;19.41;100.00;91978.63;5063802;28;20453;-76
2023/08/06 02:28:36;;;;;;;27.65;25.95;;;;;;;19.46;100.00;91966.28;5064438;28;20048;-76
2023/08/06 02:31:03;;;;;;;23.02;21.60;;;;;;;19.54;100.00;91951.00;5064830;28;20052;-76
2023/08/06 02:33:29;;;;;;;21.60;20.25;;;;;;;19.50;100.00;91941.16;5067594;28;20049;-76
2023/08/06 02:36:03;;;;;;;24.30;22.80;;;;;;;19.06;100.00;91914.06;5064346;28;20052;-76
2023/08/06 02:38:30;;;;;;;18.10;16.80;;;;;;;19.13;100.00;91934.47;5064580;28;20075;-76
2023/08/06 02:40:57;;;;;;;26.05;24.55;;;;;;;19.19;100.00;91926.25;5067279;28;20101;-76
2023/08/06 02:43:27;;;;;;;22.98;21.52;;;;;;;19.36;100.00;91935.28;5064595;28;20457;-76
2023/08/06 02:45:58;;;;;;;28.25;26.73;;;;;;;19.31;100.00;91938.75;5068559;28;20044;-75
2023/08/06 02:48:24;;;;;;;21.35;19.95;;;;;;;19.36;100.00;91945.69;5067311;28;20636;-75
2023/08/06 02:50:51;;;;;;;20.10;18.70;;;;;;;19.16;100.00;91913.06;5066354;28;20515;-75
2023/08/06 02:53:18;;;;;;;26.27;24.75;;;;;;;19.34;100.00;91919.16;5066854;28;20049;-76
2023/08/06 02:55:48;;;;;;;22.58;21.27;;;;;;;19.27;100.00;91911.78;5064298;28;20541;-75
2023/08/06 02:58:14;;;;;;;22.23;21.02;;;;;;;19.26;100.00;91899.84;5066964;28;20163;-75
2023/08/06 03:00:42;;;;;;;23.02;21.73;;;;;;;19.32;100.00;91895.25;5060916;28;20052;-75
2023/08/06 03:03:10;;;;;;;16.45;15.45;;;;;;;19.42;100.00;91902.84;5062362;28;20048;-75
2023/08/06 03:05:37;;;;;;;22.52;21.08;;;;;;;19.45;100.00;91907.44;5063524;28;20049;-75
2023/08/06 03:08:03;;;;;;;15.88;14.88;;;;;;;19.43;100.00;91906.19;5062549;28;20473;-75
2023/08/06 03:10:30;;;;;;;21.35;20.10;;;;;;;19.45;100.00;91912.66;5061729;28;20573;-75
2023/08/06 03:12:57;;;;;;;14.68;13.65;;;;;;;19.46;100.00;91922.03;5064841;28;20044;-75
2023/08/06 03:15:24;;;;;;;18.38;17.10;;;;;;;19.46;100.00;91942.06;5058387;28;20421;-75
2023/08/06 03:17:51;;;;;;;15.25;14.25;;;;;;;19.54;100.00;91949.19;5065735;28;20059;-75
2023/08/06 03:20:19;;;;;;;22.92;21.50;;;;;;;19.53;100.00;91937.22;5061172;28;20101;-75
2023/08/06 03:22:45;;;;;;;21.42;20.13;;;;;;;19.58;100.00;91934.50;5063873;28;20808;-75
2023/08/06 03:25:12;;;;;;;15.63;14.63;;;;;;;19.61;100.00;91939.13;5064098;28;20090;-74
2023/08/06 03:27:39;;;;;;;22.85;21.48;;;;;;;19.59;100.00;91940.47;5057875;28;20048;-75
2023/08/06 03:30:07;;;;;;;16.77;15.55;;;;;;;19.62;100.00;91948.47;5062791;28;20044;-75
2023/08/06 03:32:34;;;;;;;16.17;15.05;;;;;;;19.66;100.00;91958.31;5062634;28;20099;-75
2023/08/06 03:35:00;;;;;;;17.27;16.17;;;;;;;19.66;100.00;91955.69;5062743;28;20040;-75
2023/08/06 03:37:28;;;;;;;16.85;15.75;;;;;;;19.62;100.00;91952.88;5062918;28;20543;-76
2023/08/06 03:39:55;;;;;;;15.43;14.43;;;;;;;19.69;100.00;91949.88;5065216;28;20036;-75
2023/08/06 03:42:22;;;;;;;18.83;17.50;;;;;;;19.67;100.00;91944.97;5059697;28;20098;-75
2023/08/06 03:44:49;;;;;;;15.90;14.90;;;;;;;19.70;100.00;91954.00;5064582;28;20552;-75
2023/08/06 03:47:16;;;;;;;13.68;12.75;;;;;;;19.59;100.00;91950.91;5063691;28;20106;-76
2023/08/06 03:49:43;;;;;;;15.77;14.77;;;;;;;19.71;100.00;91963.38;5062476;28;20448;-76
2023/08/06 03:52:10;;;;;;;13.52;12.63;;;;;;;19.71;100.00;91971.97;5059869;28;20059;-76
2023/08/06 03:54:39;;;;;;;14.27;13.27;;;;;;;19.69;100.00;91975.94;5060386;28;20064;-76
2023/08/06 03:57:06;;;;;;;20.52;19.33;;;;;;;19.79;100.00;91991.31;5060864;28;20845;-76
2023/08/06 03:59:32;;;;;;;16.83;15.82;;;;;;;19.79;100.00;91988.72;5058793;28;20568;-76
2023/08/06 04:01:59;;;;;;;17.67;16.48;;;;;;;19.75;100.00;91985.94;5063115;28;20095;-76
2023/08/06 04:04:26;;;;;;;21.33;19.92;;;;;;;19.80;100.00;91986.88;5065841;28;20052;-76
2023/08/06 04:06:52;;;;;;;15.43;14.23;;;;;;;19.81;100.00;91980.59;5059355;28;20101;-76
2023/08/06 04:09:19;;;;;;;19.38;17.73;;;;;;;19.83;100.00;91976.63;5060790;28;20442;-76
2023/08/06 04:11:47;;;;;;;19.02;17.33;;;;;;;19.82;100.00;91969.91;5064025;28;20496;-76
2023/08/06 04:14:14;;;;;;;25.42;23.35;;;;;;;19.81;100.00;91967.59;5062974;28;20110;-76
2023/08/06 04:16:41;;;;;;;23.63;21.75;;;;;;;19.76;100.00;91961.41;5060827;28;20547;-76
2023/08/06 04:19:07;;;;;;;21.77;19.55;;;;;;;19.90;100.00;91968.38;5065802;28;20090;-76
2023/08/06 04:21:34;;;;;;;26.10;24.13;;;;;;;19.92;100.00;91960.28;5060261;28;20190;-76
2023/08/06 04:24:01;;;;;;;20.27;18.48;;;;;;;19.87;100.00;91942.94;5058745;28;20045;-76
2023/08/06 04:26:28;;;;;;;22.42;20.52;;;;;;;19.93;100.00;91954.78;5056164;28;20048;-76
2023/08/06 04:28:56;;;;;;;24.38;22.45;;;;;;;19.94;100.00;91955.56;5064240;28;20399;-76
2023/08/06 04:31:23;;;;;;;22.73;20.77;;;;;;;19.98;100.00;91957.28;5060149;28;20506;-76
2023/08/06 04:33:49;;;;;;;22.13;20.23;;;;;;;20.02;100.00;91960.84;5062293;28;20049;-76
2023/08/06 04:36:20;;;;;;;18.23;16.58;;;;;;;19.76;100.00;91924.16;5064305;28;20063;-76
2023/08/06 04:38:50;;;;;;;19.17;17.38;;;;;;;20.06;100.00;91955.78;5063645;28;20056;-76
2023/08/06 04:41:30;;;;;;;22.25;20.45;;;;;;;19.97;100.00;91941.94;5060364;28;20044;-76
2023/08/06 04:43:59;;;;;;;20.77;19.17;;;;;;;20.12;100.00;91953.81;5063031;28;20044;-75
2023/08/06 04:46:28;;;;;;;22.60;20.77;;;;;;;20.09;100.00;91949.22;5058364;28;20737;-75
2023/08/06 04:48:56;;;;;;;20.50;18.92;;;;;;;20.12;100.00;91943.38;5066634;28;20442;-75
2023/08/06 04:51:23;;;;;;;22.85;21.13;;;;;;;20.14;100.00;91943.88;5064835;28;20923;-74
2023/08/06 04:53:50;;;;;;;19.27;17.67;;;;;;;20.02;100.00;91915.75;5061866;28;20044;-75
2023/08/06 04:56:16;;;;;;;17.90;16.42;;;;;;;20.13;100.00;91930.06;5062040;28;20048;-76
2023/08/06 04:58:43;;;;;;;21.17;19.50;;;;;;;20.24;100.00;91935.78;5064262;28;20494;-75
2023/08/06 05:01:28;;;;;;;15.60;14.20;;;;;;;20.15;100.00;91914.13;5062917;28;20091;-75
2023/08/06 05:03:57;;;;;;;15.88;14.48;;;;;;;20.25;100.00;91919.06;5065951;28;20060;-75
2023/08/06 05:09:14;;;;;;;16.13;14.73;;;;;;;20.29;100.00;91933.00;5061767;28;20101;-75
2023/08/06 05:11:40;;;;;;;16.95;15.63;;;;;;;20.26;100.00;91925.81;5059946;28;20084;-75
2023/08/06 05:14:07;;;;;;;17.50;15.73;;;;;;;20.32;100.00;91936.09;5059526;28;20560;-75
2023/08/06 05:16:35;;;;;;;16.15;14.75;;;;;;;20.33;100.00;91929.81;5059890;28;20048;-75
2023/08/06 05:19:02;;;;;;;15.52;14.02;;;;;;;20.39;100.00;91932.00;5060787;28;20131;-75
2023/08/06 05:21:28;;;;;;;16.77;15.18;;;;;;;20.29;100.00;91932.25;5065772;28;20502;-75
2023/08/06 05:23:55;;;;;;;20.35;18.50;;;;;;;20.18;100.00;91931.00;5066136;28;20037;-75
2023/08/06 05:26:22;;;;;;;19.83;17.92;;;;;;;20.00;100.00;91926.47;5063097;28;20052;-75
2023/08/06 05:28:49;;;;;;;20.42;18.15;;;;;;;19.93;100.00;91926.09;5063749;28;20433;-75
2023/08/06 05:31:15;;;;;;;20.80;18.70;;;;;;;19.89;100.00;91922.53;5061814;28;20109;-76
2023/08/06 05:33:44;;;;;;;21.48;19.30;;;;;;;19.90;100.00;91922.25;5062208;28;20118;-75
2023/08/06 05:36:10;;;;;;;25.40;22.85;;;;;;;19.79;100.00;91922.78;5060224;28;20044;-74
2023/08/06 05:38:37;;;;;;;19.38;17.48;;;;;;;19.63;100.00;91920.59;5060175;28;20118;-75
2023/08/06 05:41:04;;;;;;;20.10;18.35;;;;;;;19.74;100.00;91915.88;5062471;28;20049;-74
2023/08/06 05:43:30;;;;;;;19.33;17.58;;;;;;;19.81;100.00;91921.44;5061848;28;20048;-74
2023/08/06 05:45:57;;;;;;;19.50;17.45;;;;;;;19.75;100.00;91920.03;5064437;28;20048;-74
2023/08/06 05:48:24;;;;;;;18.90;17.20;;;;;;;19.68;100.00;91924.91;5065253;28;20098;-75
2023/08/06 05:50:53;;;;;;;28.50;26.17;;;;;;;19.76;100.00;91930.16;5064567;28;20139;-75
2023/08/06 05:53:19;;;;;;;18.95;17.17;;;;;;;19.81;100.00;91924.03;5064353;28;20052;-75
2023/08/06 05:55:46;;;;;;;20.90;19.13;;;;;;;20.05;100.00;91935.22;5064570;28;20044;-75
2023/08/06 05:58:13;;;;;;;19.15;17.35;;;;;;;20.20;100.00;91934.06;5064772;28;20052;-73
2023/08/06 06:00:40;;;;;;;19.42;17.73;;;;;;;20.27;100.00;91937.03;5067860;28;20041;-75
2023/08/06 06:03:06;;;;;;;17.40;15.57;;;;;;;20.40;100.00;91937.97;5067600;28;20480;-74
2023/08/06 06:05:33;;;;;;;15.55;14.05;;;;;;;20.45;100.00;91944.91;5068713;28;20106;-74
2023/08/06 06:08:01;;;;;;;15.40;14.00;;;;;;;20.48;100.00;91945.06;5069363;28;20495;-74
2023/08/06 06:10:28;;;;;;;17.85;16.20;;;;;;;20.61;100.00;91945.25;5067501;28;20053;-75
2023/08/06 06:12:54;;;;;;;14.38;12.98;;;;;;;20.64;100.00;91955.09;5064304;28;20048;-74
2023/08/06 06:15:21;;;;;;;14.85;13.45;;;;;;;20.68;100.00;91964.59;5065897;28;20498;-74
2023/08/06 06:17:48;;;;;;;14.43;13.02;;;;;;;20.69;100.00;91970.59;5062079;28;20049;-74
2023/08/06 06:20:15;;;;;;;17.63;16.00;;;;;;;20.72;100.00;91974.41;5065486;28;20049;-75
2023/08/06 06:22:41;;;;;;;15.50;14.10;;;;;;;20.54;100.00;91984.81;5065630;28;20056;-75
2023/08/06 06:25:10;;;;;;;14.23;13.02;;;;;;;19.88;100.00;91973.91;5066541;28;20053;-74
2023/08/06 06:27:37;;;;;;;15.57;14.18;;;;;;;20.02;100.00;91976.47;5067405;28;20127;-75
2023/08/06 06:30:09;;;;;;;14.90;13.52;;;;;;;19.92;100.00;92000.16;5066789;28;20059;-74
2023/08/06 06:32:35;;;;;;;15.23;14.02;;;;;;;20.19;100.00;92002.91;5066534;28;20056;-75
2023/08/06 06:35:02;;;;;;;17.67;16.25;;;;;;;20.31;100.00;92005.72;5065791;28;20048;-74
2023/08/06 06:37:29;;;;;;;14.75;13.45;;;;;;;20.50;100.00;92008.13;5063104;28;20609;-75
2023/08/06 06:39:55;;;;;;;15.50;14.15;;;;;;;20.66;100.00;92016.31;5064018;28;20090;-76
2023/08/06 06:42:24;;;;;;;17.02;15.73;;;;;;;20.67;100.00;92009.25;5064821;28;20536;-76
2023/08/06 06:44:50;;;;;;;15.23;13.93;;;;;;;20.66;100.00;92010.31;5063891;28;20063;-75
2023/08/06 06:47:17;;;;;;;13.02;11.65;;;;;;;20.85;100.00;92011.91;5065544;28;20102;-75
2023/08/06 06:49:44;;;;;;;11.75;10.82;;;;;;;20.95;100.00;92014.28;5064927;28;20575;-76
2023/08/06 06:52:13;;;;;;;13.68;12.38;;;;;;;21.13;100.00;92016.91;5066818;28;20048;-75
2023/08/06 06:54:39;;;;;;;12.88;11.57;;;;;;;21.34;100.00;92010.03;5065515;28;20399;-75
2023/08/06 06:57:07;;;;;;;11.98;10.90;;;;;;;21.39;100.00;92008.34;5064552;28;20078;-77
2023/08/06 06:59:35;;;;;;;11.55;10.45;;;;;;;21.82;100.00;92012.84;5063821;28;20049;-77
2023/08/06 07:02:01;;;;;;;10.18;9.35;;;;;;;21.69;100.00;92008.50;5062137;28;20056;-77
2023/08/06 07:04:28;;;;;;;7.13;6.53;;;;;;;21.79;100.00;92013.44;5063798;28;20048;-77
2023/08/06 07:06:55;;;;;;;7.82;7.10;;;;;;;21.83;100.00;92008.34;5064306;28;20494;-77
2023/08/06 07:09:21;;;;;;;8.82;7.93;;;;;;;22.18;100.00;92031.84;5063504;28;20051;-76
2023/08/06 07:11:48;;;;;;;7.75;6.72;;;;;;;22.51;100.00;92033.16;5061159;28;20060;-77
2023/08/06 07:14:15;;;;;;;8.55;6.80;;;;;;;22.76;100.00;92034.16;5060562;28;20048;-77
2023/08/06 07:16:43;;;;;;;6.85;6.15;;;;;;;23.03;100.00;92039.25;5062413;28;20508;-77
2023/08/06 07:19:10;;;;;;;5.22;4.72;;;;;;;23.26;100.00;92044.22;5062796;28;20044;-76
2023/08/06 07:21:37;;;;;;;6.55;4.57;;;;;;;23.39;100.00;92040.63;5062067;28;20045;-76
2023/08/06 07:24:04;;;;;;;8.65;5.22;;;;;;;23.51;100.00;92039.91;5060582;28;20060;-76
2023/08/06 07:26:32;;;;;;;5.53;4.90;;;;;;;23.69;100.00;92051.06;5063197;28;20052;-76
2023/08/06 07:28:58;;;;;;;4.82;4.35;;;;;;;23.92;99.84;92049.97;5064532;28;20048;-76
2023/08/06 07:31:25;;;;;;;4.22;3.83;;;;;;;23.98;99.35;92054.66;5063576;28;20146;-77
2023/08/06 07:33:53;;;;;;;7.75;6.80;;;;;;;23.69;95.58;92056.28;5062901;28;20052;-77
2023/08/06 07:36:20;;;;;;;6.20;4.50;;;;;;;23.08;95.24;92016.28;5062010;28;20044;-76
2023/08/06 07:38:48;;;;;;;6.18;4.57;;;;;;;23.05;95.44;92045.72;5065079;28;20690;-76
2023/08/06 07:41:15;;;;;;;5.72;5.20;;;;;;;23.17;100.00;92037.19;5066737;28;20506;-76
2023/08/06 07:43:42;;;;;;;5.70;4.15;;;;;;;23.42;95.92;92041.84;5066155;28;20072;-76
2023/08/06 07:46:09;;;;;;;4.75;3.88;;;;;;;23.09;91.37;92046.63;5064560;28;20067;-76
2023/08/06 07:48:36;;;;;;;5.40;4.53;;;;;;;23.32;92.65;92046.38;5063467;28;20121;-76
2023/08/06 07:51:04;;;;;;;4.55;4.07;;;;;;;23.09;91.34;92046.63;5065593;28;20048;-76
2023/08/06 07:53:30;;;;;;;6.63;4.70;;;;;;;23.27;94.40;92053.63;5060668;28;20064;-76
2023/08/06 07:55:58;;;;;;;6.03;4.57;;;;;;;23.43;92.10;92048.63;5059678;28;20052;-75
2023/08/06 07:58:25;;;;;;;6.22;4.82;;;;;;;23.65;93.29;92047.53;5059816;28;20106;-75
2023/08/06 08:00:52;;;;;;;6.13;4.10;;;;;;;23.99;95.63;92056.22;5060392;28;20052;-75
2023/08/06 08:03:19;;;;;;;5.20;3.60;;;;;;;24.27;90.25;92039.94;5059671;28;20082;-75
2023/08/06 08:05:46;;;;;;;6.10;3.97;;;;;;;24.58;90.62;92043.19;5059583;28;20051;-76
2023/08/06 08:08:14;;;;;;;4.15;3.28;;;;;;;24.74;89.09;92040.69;5060485;28;20049;-75
2023/08/06 08:10:41;;;;;;;4.57;2.63;;;;;;;24.87;87.39;92038.84;5062024;28;20110;-75
2023/08/06 08:13:08;;;;;;;4.70;3.30;;;;;;;25.11;85.73;92041.78;5059588;28;20052;-75
2023/08/06 08:15:35;;;;;;;5.53;3.33;;;;;;;25.10;84.17;92041.03;5061184;28;20441;-74
2023/08/06 08:18:02;;;;;;;7.75;3.42;;;;;;;25.14;84.14;92039.28;5066280;28;20048;-75
2023/08/06 08:20:31;;;;;;;3.88;3.03;;;;;;;25.01;79.99;92035.91;5061187;28;20052;-75
2023/08/06 08:23:00;;;;;;;4.22;3.10;;;;;;;24.98;78.03;92044.44;5062111;28;20057;-74
2023/08/06 08:25:28;;;;;;;4.65;3.40;;;;;;;24.57;78.26;92025.88;5060917;28;20159;-75
2023/08/06 08:27:55;;;;;;;6.07;3.50;;;;;;;25.03;78.77;92038.94;5061942;28;20094;-75
2023/08/06 08:30:24;;;;;;;14.00;9.75;;;;;;;25.12;84.23;92035.47;5063460;28;20097;-76
2023/08/06 08:32:51;;;;;;;11.57;7.13;;;;;;;25.41;82.03;92039.66;5062970;28;20059;-76
2023/08/06 08:35:18;;;;;;;9.45;5.47;;;;;;;25.70;84.07;92034.50;5060397;28;20048;-75
2023/08/06 08:37:44;;;;;;;6.95;4.28;;;;;;;25.81;77.60;92048.72;5060326;28;20048;-75
2023/08/06 08:40:12;;;;;;;8.20;3.50;;;;;;;25.82;82.87;92037.09;5064263;28;20044;-75
2023/08/06 08:42:40;;;;;;;5.25;4.15;;;;;;;25.63;74.47;92039.56;5064000;28;20050;-75
2023/08/06 08:45:13;;;;;;;5.85;3.85;;;;;;;25.26;76.70;92030.63;5063917;28;20040;-75
2023/08/06 08:47:41;;;;;;;5.88;3.42;;;;;;;25.55;79.22;92035.97;5063506;28;20093;-74
2023/08/06 08:50:09;;;;;;;7.03;5.13;;;;;;;25.95;78.66;92032.53;5060894;28;20687;-74
2023/08/06 08:52:36;;;;;;;4.60;3.78;;;;;;;25.77;77.66;92037.31;5059433;28;20110;-75
2023/08/06 08:55:04;;;;;;;5.22;3.33;;;;;;;25.72;76.94;92032.28;5061458;28;20044;-74
2023/08/06 08:57:30;;;;;;;7.47;4.28;;;;;;;25.92;81.06;92020.06;5060547;28;20090;-76
2023/08/06 08:59:59;;;;;;;4.60;3.50;;;;;;;26.24;77.34;92028.06;5062647;28;20399;-75
2023/08/06 09:02:29;;;;;;;11.15;4.22;;;;;;;26.44;76.18;92022.91;5060857;28;20056;-75
2023/08/06 09:04:59;;;;;;;4.57;3.67;;;;;;;26.54;77.27;92029.53;5063947;28;20476;-75
2023/08/06 09:07:27;;;;;;;6.53;4.40;;;;;;;26.81;73.03;92029.78;5063391;28;20044;-75
2023/08/06 09:09:56;;;;;;;4.20;3.25;;;;;;;26.76;67.64;92025.53;5064118;28;20079;-76
2023/08/06 09:12:23;;;;;;;5.47;3.40;;;;;;;26.35;69.32;92027.56;5060810;28;20693;-75
2023/08/06 09:14:50;;;;;;;4.78;2.72;;;;;;;26.14;68.07;92025.88;5060873;28;20170;-75
2023/08/06 09:17:19;;;;;;;7.57;3.17;;;;;;;25.97;70.86;92025.06;5063288;28;20419;-75
2023/08/06 09:19:48;;;;;;;4.35;3.30;;;;;;;25.64;73.50;92017.44;5061999;28;20049;-73
2023/08/06 09:22:15;;;;;;;4.25;3.38;;;;;;;24.81;72.37;91995.50;5064227;28;20392;-75
2023/08/06 09:24:42;;;;;;;6.75;3.65;;;;;;;24.34;79.13;92015.78;5063910;28;20105;-75
2023/08/06 09:27:13;;;;;;;4.60;3.20;;;;;;;23.91;73.00;92019.56;5062804;28;20048;-75
2023/08/06 09:29:43;;;;;;;16.10;10.60;;;;;;;24.38;76.52;92008.03;5063983;28;20152;-75
2023/08/06 09:32:09;;;;;;;6.82;3.85;;;;;;;24.23;74.72;92018.06;5064579;28;20143;-75
2023/08/06 09:34:40;;;;;;;5.50;3.75;;;;;;;24.42;79.23;92011.53;5066366;28;20506;-74
2023/08/06 09:37:09;;;;;;;4.65;3.28;;;;;;;24.47;72.58;92016.56;5069141;28;20098;-74
2023/08/06 09:39:36;;;;;;;6.25;3.63;;;;;;;24.76;79.61;92008.84;5069726;28;20048;-74
2023/08/06 09:42:04;;;;;;;5.63;3.40;;;;;;;25.00;77.89;92008.09;5067046;28;20487;-74
2023/08/06 09:44:32;;;;;;;5.43;2.63;;;;;;;25.17;74.42;92009.72;5063296;28;20873;-73
2023/08/06 09:47:01;;;;;;;3.83;2.88;;;;;;;25.04;70.91;92010.84;5065888;28;20928;-74
2023/08/06 09:49:40;;;;;;;3.92;2.90;;;;;;;25.23;75.35;92007.63;5066837;28;20105;-74
2023/08/06 09:52:12;;;;;;;6.88;3.35;;;;;;;25.22;73.84;91983.22;5064664;28;20117;-74
2023/08/06 09:54:39;;;;;;;6.05;2.88;;;;;;;25.58;74.92;92009.00;5064253;28;20484;-74
2023/08/06 09:57:06;;;;;;;3.63;3.00;;;;;;;25.68;75.53;92015.66;5067353;28;20044;-74
2023/08/06 09:59:33;;;;;;;3.30;2.45;;;;;;;25.92;74.45;92006.16;5069281;28;20143;-74
2023/08/06 10:02:00;;;;;;;4.97;2.95;;;;;;;25.95;72.93;91979.16;5067455;28;20146;-74
2023/08/06 10:04:27;;;;;;;5.30;2.35;;;;;;;26.27;71.21;92003.69;5063976;28;20056;-74
2023/08/06 10:06:55;;;;;;;4.70;2.90;;;;;;;26.44;69.50;92014.22;5063073;28;20046;-74
2023/08/06 10:09:25;;;;;;;3.78;3.03;;;;;;;26.47;69.32;92013.56;5065891;28;20784;-75
2023/08/06 10:11:53;;;;;;;3.65;2.72;;;;;;;26.31;71.94;92013.53;5067368;28;20090;-75
2023/08/06 10:14:25;;;;;;;4.10;2.67;;;;;;;26.55;71.29;92018.66;5067180;28;20084;-74
2023/08/06 10:16:52;;;;;;;6.07;2.55;;;;;;;26.67;69.37;92030.22;5067854;28;20668;-74
2023/08/06 10:19:20;;;;;;;4.90;3.72;;;;;;;26.76;69.01;92022.91;5067322;28;20129;-74
2023/08/06 10:22:12;;;;;;;9.68;2.97;;;;;;;26.81;69.30;92022.63;5064503;28;20396;-74
2023/08/06 10:25:01;;;;;;;5.82;3.58;;;;;;;26.77;67.58;92015.78;5066245;28;20056;-75
2023/08/06 10:27:31;;;;;;;3.28;2.75;;;;;;;26.89;67.92;92017.56;5061735;28;20040;-74
2023/08/06 10:30:18;;;;;;;7.90;4.78;;;;;;;26.89;67.54;92022.81;5066237;28;20054;-74
2023/08/06 10:32:49;;;;;;;4.13;2.70;;;;;;;26.59;64.81;92024.00;5062100;28;20048;-75
2023/08/06 10:35:30;;;;;;;3.42;2.58;;;;;;;26.11;65.83;92029.19;5066846;28;20048;-74
2023/08/06 10:37:59;;;;;;;6.55;3.05;;;;;;;26.14;69.61;92031.13;5064631;28;20053;-74
2023/08/06 10:40:29;;;;;;;3.75;2.67;;;;;;;26.22;69.30;92024.19;5065162;28;20416;-75
2023/08/06 10:42:56;;;;;;;3.90;2.88;;;;;;;26.23;68.63;92026.53;5063495;28;20135;-75
2023/08/06 10:45:28;;;;;;;4.25;3.40;;;;;;;26.32;69.51;92025.59;5062250;28;20048;-76
2023/08/06 10:47:55;;;;;;;3.33;2.22;;;;;;;26.25;72.43;92023.56;5059816;28;20521;-76
2023/08/06 10:50:22;;;;;;;2.95;2.58;;;;;;;26.41;74.15;92026.97;5061164;28;20085;-76
2023/08/06 10:52:49;;;;;;;4.88;2.90;;;;;;;26.70;72.63;92031.41;5062008;28;20056;-76
2023/08/06 10:55:22;;;;;;;2.92;2.20;;;;;;;26.85;71.19;92035.16;5062744;28;20098;-75
2023/08/06 10:57:51;;;;;;;5.25;2.70;;;;;;;26.93;71.53;92026.31;5060161;28;20048;-76
2023/08/06 11:00:17;;;;;;;3.80;2.00;;;;;;;27.16;70.60;92023.09;5060729;28;20596;-77
2023/08/06 11:02:45;;;;;;;3.63;2.08;;;;;;;27.39;71.01;92025.81;5063547;28;20049;-77
2023/08/06 11:05:12;;;;;;;4.22;2.25;;;;;;;27.70;68.42;92018.16;5066249;28;20044;-76
2023/08/06 11:07:39;;;;;;;5.53;2.90;;;;;;;28.06;67.15;92024.16;5062976;28;20110;-76
2023/08/06 11:10:08;;;;;;;5.43;2.28;;;;;;;26.36;65.82;92032.50;5061523;28;20073;-75
2023/08/06 11:12:35;;;;;;;3.50;2.60;;;;;;;25.95;66.66;92034.41;5061790;28;20486;-75
2023/08/06 11:15:04;;;;;;;4.38;2.70;;;;;;;25.41;68.46;92031.03;5062839;28;20452;-75
2023/08/06 11:17:33;;;;;;;4.47;3.30;;;;;;;24.68;69.94;92034.84;5065650;28;20056;-74
2023/08/06 11:20:00;;;;;;;5.18;3.13;;;;;;;24.37;73.80;92043.22;5066663;28;20094;-75
2023/08/06 11:22:27;;;;;;;4.88;3.70;;;;;;;24.45;71.92;92034.50;5062278;28;20058;-75